sensor_id;sensor_type;location;lat;lon;timestamp;P1;durP1;ratioP1;P2;durP2;ratioP2
16426;SDS011;8322;-33.900;151.170;2023-04-06T00:01:19;5.00;;;1.70;;
16426;SDS011;8322;-33.900;151.170;2023-04-06T00:03:48;2.40;;;1.00;;
16426;SDS011;8322;-33.900;151.170;2023-04-06T00:06:18;4.03;;;1.00;;
16426;SDS011;8322;-33.900;151.170;2023-04-06T00:08:47;2.70;;;1.17;;
16426;SDS011;8322;-33.900;151.170;2023-04-06T00:11:17;5.18;;;1.48;;
16426;SDS011;8322;-33.900;151.170;2023-04-06T00:13:48;3.08;;;1.25;;
16426;SDS011;8322;-33.900;151.170;2023-04-06T00:16:18;4.28;;;2.00;;
16426;SDS011;8322;-33.900;151.170;2023-04-06T00:18:47;3.95;;;1.75;;
16426;SDS011;8322;-33.900;151.170;2023-04-06T00:21:17;6.57;;;2.05;;
16426;SDS011;8322;-33.900;151.170;2023-04-06T00:23:47;4.55;;;2.00;;
16426;SDS011;8322;-33.900;151.170;2023-04-06T00:26:16;6.55;;;2.00;;
16426;SDS011;8322;-33.900;151.170;2023-04-06T00:28:46;7.97;;;2.22;;
16426;SDS011;8322;-33.900;151.170;2023-04-06T00:31:18;7.13;;;2.08;;
16426;SDS011;8322;-33.900;151.170;2023-04-06T00:33:48;6.03;;;1.85;;
16426;SDS011;8322;-33.900;151.170;2023-04-06T00:36:17;4.90;;;1.70;;
16426;SDS011;8322;-33.900;151.170;2023-04-06T00:38:47;6.07;;;1.70;;
16426;SDS011;8322;-33.900;151.170;2023-04-06T00:41:17;7.07;;;1.95;;
16426;SDS011;8322;-33.900;151.170;2023-04-06T00:43:46;6.95;;;1.98;;
16426;SDS011;8322;-33.900;151.170;2023-04-06T00:46:18;3.92;;;1.60;;
16426;SDS011;8322;-33.900;151.170;2023-04-06T00:48:47;4.45;;;1.70;;
16426;SDS011;8322;-33.900;151.170;2023-04-06T00:51:17;4.57;;;1.35;;
16426;SDS011;8322;-33.900;151.170;2023-04-06T00:53:46;2.75;;;1.50;;
16426;SDS011;8322;-33.900;151.170;2023-04-06T00:56:16;3.95;;;1.60;;
16426;SDS011;8322;-33.900;151.170;2023-04-06T00:58:45;1.58;;;1.27;;
16426;SDS011;8322;-33.900;151.170;2023-04-06T01:01:15;5.18;;;1.10;;
16426;SDS011;8322;-33.900;151.170;2023-04-06T01:03:46;3.90;;;1.30;;
16426;SDS011;8322;-33.900;151.170;2023-04-06T01:06:17;3.63;;;1.25;;
16426;SDS011;8322;-33.900;151.170;2023-04-06T01:08:46;4.13;;;1.40;;
16426;SDS011;8322;-33.900;151.170;2023-04-06T01:11:17;3.28;;;1.50;;
16426;SDS011;8322;-33.900;151.170;2023-04-06T01:13:47;2.97;;;1.38;;
16426;SDS011;8322;-33.900;151.170;2023-04-06T01:16:16;4.65;;;1.70;;
16426;SDS011;8322;-33.900;151.170;2023-04-06T01:18:48;5.35;;;1.60;;
16426;SDS011;8322;-33.900;151.170;2023-04-06T01:21:17;5.40;;;1.65;;
16426;SDS011;8322;-33.900;151.170;2023-04-06T01:23:49;2.50;;;1.50;;
16426;SDS011;8322;-33.900;151.170;2023-04-06T01:26:18;3.83;;;1.40;;
16426;SDS011;8322;-33.900;151.170;2023-04-06T01:28:48;2.30;;;0.90;;
16426;SDS011;8322;-33.900;151.170;2023-04-06T01:31:18;5.47;;;1.33;;
16426;SDS011;8322;-33.900;151.170;2023-04-06T01:33:47;1.88;;;1.00;;
16426;SDS011;8322;-33.900;151.170;2023-04-06T01:36:17;3.00;;;1.95;;
16426;SDS011;8322;-33.900;151.170;2023-04-06T01:38:48;2.70;;;1.40;;
16426;SDS011;8322;-33.900;151.170;2023-04-06T01:41:17;2.42;;;1.33;;
16426;SDS011;8322;-33.900;151.170;2023-04-06T01:43:47;4.03;;;1.35;;
16426;SDS011;8322;-33.900;151.170;2023-04-06T01:46:20;1.38;;;0.98;;
16426;SDS011;8322;-33.900;151.170;2023-04-06T01:48:49;3.22;;;1.40;;
16426;SDS011;8322;-33.900;151.170;2023-04-06T01:51:19;3.83;;;1.60;;
16426;SDS011;8322;-33.900;151.170;2023-04-06T01:53:52;2.85;;;1.30;;
16426;SDS011;8322;-33.900;151.170;2023-04-06T01:56:21;5.63;;;1.40;;
16426;SDS011;8322;-33.900;151.170;2023-04-06T01:58:51;4.25;;;1.35;;
16426;SDS011;8322;-33.900;151.170;2023-04-06T02:01:20;3.75;;;1.50;;
16426;SDS011;8322;-33.900;151.170;2023-04-06T02:03:50;2.65;;;1.08;;
16426;SDS011;8322;-33.900;151.170;2023-04-06T02:06:19;1.88;;;0.90;;
16426;SDS011;8322;-33.900;151.170;2023-04-06T02:08:49;1.98;;;1.00;;
16426;SDS011;8322;-33.900;151.170;2023-04-06T02:11:20;4.15;;;1.25;;
16426;SDS011;8322;-33.900;151.170;2023-04-06T02:13:50;2.30;;;1.00;;
16426;SDS011;8322;-33.900;151.170;2023-04-06T02:16:19;1.33;;;0.70;;
16426;SDS011;8322;-33.900;151.170;2023-04-06T02:18:49;2.55;;;0.90;;
16426;SDS011;8322;-33.900;151.170;2023-04-06T02:21:19;2.17;;;0.90;;
16426;SDS011;8322;-33.900;151.170;2023-04-06T02:23:48;3.08;;;1.50;;
16426;SDS011;8322;-33.900;151.170;2023-04-06T02:26:25;4.00;;;1.20;;
16426;SDS011;8322;-33.900;151.170;2023-04-06T02:28:55;4.00;;;1.50;;
16426;SDS011;8322;-33.900;151.170;2023-04-06T02:31:24;2.58;;;1.00;;
16426;SDS011;8322;-33.900;151.170;2023-04-06T02:33:54;2.38;;;0.80;;
16426;SDS011;8322;-33.900;151.170;2023-04-06T02:36:23;3.08;;;1.00;;
16426;SDS011;8322;-33.900;151.170;2023-04-06T02:38:53;2.22;;;0.80;;
16426;SDS011;8322;-33.900;151.170;2023-04-06T02:41:22;1.73;;;0.75;;
16426;SDS011;8322;-33.900;151.170;2023-04-06T02:43:54;3.10;;;0.98;;
16426;SDS011;8322;-33.900;151.170;2023-04-06T02:46:24;4.40;;;1.10;;
16426;SDS011;8322;-33.900;151.170;2023-04-06T02:48:53;3.70;;;0.95;;
16426;SDS011;8322;-33.900;151.170;2023-04-06T02:51:23;2.00;;;0.90;;
16426;SDS011;8322;-33.900;151.170;2023-04-06T02:53:52;3.80;;;1.02;;
16426;SDS011;8322;-33.900;151.170;2023-04-06T02:56:22;3.63;;;1.65;;
16426;SDS011;8322;-33.900;151.170;2023-04-06T02:58:52;7.60;;;3.08;;
16426;SDS011;8322;-33.900;151.170;2023-04-06T03:01:23;11.52;;;5.50;;
16426;SDS011;8322;-33.900;151.170;2023-04-06T03:03:53;7.82;;;3.30;;
16426;SDS011;8322;-33.900;151.170;2023-04-06T03:06:22;4.82;;;1.80;;
16426;SDS011;8322;-33.900;151.170;2023-04-06T03:08:52;4.93;;;1.40;;
16426;SDS011;8322;-33.900;151.170;2023-04-06T03:11:21;5.07;;;1.48;;
16426;SDS011;8322;-33.900;151.170;2023-04-06T03:13:52;4.13;;;1.45;;
16426;SDS011;8322;-33.900;151.170;2023-04-06T03:16:23;8.55;;;1.50;;
16426;SDS011;8322;-33.900;151.170;2023-04-06T03:18:53;3.03;;;1.20;;
16426;SDS011;8322;-33.900;151.170;2023-04-06T03:21:22;3.72;;;1.27;;
16426;SDS011;8322;-33.900;151.170;2023-04-06T03:23:52;4.35;;;1.30;;
16426;SDS011;8322;-33.900;151.170;2023-04-06T03:26:21;2.67;;;1.20;;
16426;SDS011;8322;-33.900;151.170;2023-04-06T03:28:51;5.05;;;1.20;;
16426;SDS011;8322;-33.900;151.170;2023-04-06T03:31:20;2.58;;;1.17;;
16426;SDS011;8322;-33.900;151.170;2023-04-06T03:33:52;3.45;;;1.33;;
16426;SDS011;8322;-33.900;151.170;2023-04-06T03:36:23;6.00;;;3.28;;
16426;SDS011;8322;-33.900;151.170;2023-04-06T03:38:52;9.70;;;4.30;;
16426;SDS011;8322;-33.900;151.170;2023-04-06T03:41:22;6.13;;;2.45;;
16426;SDS011;8322;-33.900;151.170;2023-04-06T03:43:52;3.28;;;1.15;;
16426;SDS011;8322;-33.900;151.170;2023-04-06T03:46:22;3.90;;;1.50;;
16426;SDS011;8322;-33.900;151.170;2023-04-06T03:48:53;3.80;;;1.23;;
16426;SDS011;8322;-33.900;151.170;2023-04-06T03:51:23;5.70;;;1.00;;
16426;SDS011;8322;-33.900;151.170;2023-04-06T03:53:53;5.15;;;1.17;;
16426;SDS011;8322;-33.900;151.170;2023-04-06T03:56:22;4.40;;;1.13;;
16426;SDS011;8322;-33.900;151.170;2023-04-06T03:58:52;3.78;;;1.10;;
16426;SDS011;8322;-33.900;151.170;2023-04-06T04:01:22;3.85;;;1.05;;
16426;SDS011;8322;-33.900;151.170;2023-04-06T04:03:53;3.92;;;1.45;;
16426;SDS011;8322;-33.900;151.170;2023-04-06T04:06:23;4.45;;;1.33;;
16426;SDS011;8322;-33.900;151.170;2023-04-06T04:08:52;2.72;;;0.85;;
16426;SDS011;8322;-33.900;151.170;2023-04-06T04:11:22;2.15;;;1.00;;
16426;SDS011;8322;-33.900;151.170;2023-04-06T04:13:51;2.47;;;0.90;;
16426;SDS011;8322;-33.900;151.170;2023-04-06T04:16:21;3.55;;;1.30;;
16426;SDS011;8322;-33.900;151.170;2023-04-06T04:18:51;4.72;;;1.00;;
16426;SDS011;8322;-33.900;151.170;2023-04-06T04:21:22;3.70;;;1.15;;
16426;SDS011;8322;-33.900;151.170;2023-04-06T04:23:52;2.47;;;1.10;;
16426;SDS011;8322;-33.900;151.170;2023-04-06T04:26:21;2.92;;;1.08;;
16426;SDS011;8322;-33.900;151.170;2023-04-06T04:28:51;2.97;;;0.80;;
16426;SDS011;8322;-33.900;151.170;2023-04-06T04:31:21;4.68;;;0.98;;
16426;SDS011;8322;-33.900;151.170;2023-04-06T04:33:50;3.28;;;1.00;;
16426;SDS011;8322;-33.900;151.170;2023-04-06T04:36:20;2.60;;;1.52;;
16426;SDS011;8322;-33.900;151.170;2023-04-06T04:38:52;3.85;;;0.82;;
16426;SDS011;8322;-33.900;151.170;2023-04-06T04:41:21;4.50;;;1.10;;
16426;SDS011;8322;-33.900;151.170;2023-04-06T04:43:51;3.53;;;1.10;;
16426;SDS011;8322;-33.900;151.170;2023-04-06T04:46:21;5.80;;;1.20;;
16426;SDS011;8322;-33.900;151.170;2023-04-06T04:48:50;3.00;;;0.90;;
16426;SDS011;8322;-33.900;151.170;2023-04-06T04:51:20;1.48;;;0.73;;
16426;SDS011;8322;-33.900;151.170;2023-04-06T04:53:52;3.20;;;1.00;;
16426;SDS011;8322;-33.900;151.170;2023-04-06T04:56:22;3.58;;;0.95;;
16426;SDS011;8322;-33.900;151.170;2023-04-06T04:58:51;2.20;;;1.17;;
16426;SDS011;8322;-33.900;151.170;2023-04-06T05:01:21;5.63;;;1.27;;
16426;SDS011;8322;-33.900;151.170;2023-04-06T05:03:51;3.13;;;1.23;;
16426;SDS011;8322;-33.900;151.170;2023-04-06T05:06:20;2.25;;;1.00;;
16426;SDS011;8322;-33.900;151.170;2023-04-06T05:08:50;3.65;;;0.98;;
16426;SDS011;8322;-33.900;151.170;2023-04-06T05:11:21;3.97;;;0.90;;
16426;SDS011;8322;-33.900;151.170;2023-04-06T05:13:51;4.70;;;1.38;;
16426;SDS011;8322;-33.900;151.170;2023-04-06T05:16:21;5.72;;;1.75;;
16426;SDS011;8322;-33.900;151.170;2023-04-06T05:18:50;5.82;;;1.30;;
16426;SDS011;8322;-33.900;151.170;2023-04-06T05:21:22;6.00;;;1.10;;
16426;SDS011;8322;-33.900;151.170;2023-04-06T05:23:52;4.63;;;1.58;;
16426;SDS011;8322;-33.900;151.170;2023-04-06T05:26:24;3.40;;;0.88;;
16426;SDS011;8322;-33.900;151.170;2023-04-06T05:28:53;2.38;;;0.80;;
16426;SDS011;8322;-33.900;151.170;2023-04-06T05:31:23;5.18;;;1.42;;
16426;SDS011;8322;-33.900;151.170;2023-04-06T05:33:53;5.55;;;1.50;;
16426;SDS011;8322;-33.900;151.170;2023-04-06T05:36:22;2.20;;;1.00;;
16426;SDS011;8322;-33.900;151.170;2023-04-06T05:38:52;3.53;;;1.50;;
16426;SDS011;8322;-33.900;151.170;2023-04-06T05:41:24;2.00;;;0.60;;
16426;SDS011;8322;-33.900;151.170;2023-04-06T05:43:55;3.38;;;0.70;;
16426;SDS011;8322;-33.900;151.170;2023-04-06T05:46:24;4.90;;;1.10;;
16426;SDS011;8322;-33.900;151.170;2023-04-06T05:48:54;5.03;;;1.20;;
16426;SDS011;8322;-33.900;151.170;2023-04-06T05:51:24;5.60;;;1.40;;
16426;SDS011;8322;-33.900;151.170;2023-04-06T05:53:54;2.92;;;0.80;;
16426;SDS011;8322;-33.900;151.170;2023-04-06T05:56:25;2.35;;;0.70;;
16426;SDS011;8322;-33.900;151.170;2023-04-06T05:58:56;3.65;;;0.80;;
16426;SDS011;8322;-33.900;151.170;2023-04-06T06:01:25;2.88;;;0.70;;
16426;SDS011;8322;-33.900;151.170;2023-04-06T06:03:55;3.33;;;1.00;;
16426;SDS011;8322;-33.900;151.170;2023-04-06T06:06:25;6.85;;;1.13;;
16426;SDS011;8322;-33.900;151.170;2023-04-06T06:08:56;4.53;;;1.23;;
16426;SDS011;8322;-33.900;151.170;2023-04-06T06:11:29;4.97;;;1.42;;
16426;SDS011;8322;-33.900;151.170;2023-04-06T06:13:59;5.35;;;2.53;;
16426;SDS011;8322;-33.900;151.170;2023-04-06T06:16:28;6.50;;;2.30;;
16426;SDS011;8322;-33.900;151.170;2023-04-06T06:18:58;5.53;;;1.73;;
16426;SDS011;8322;-33.900;151.170;2023-04-06T06:21:28;2.83;;;1.25;;
16426;SDS011;8322;-33.900;151.170;2023-04-06T06:23:58;2.55;;;0.90;;
16426;SDS011;8322;-33.900;151.170;2023-04-06T06:29:00;6.25;;;1.48;;
16426;SDS011;8322;-33.900;151.170;2023-04-06T06:31:31;6.00;;;2.88;;
16426;SDS011;8322;-33.900;151.170;2023-04-06T06:34:01;9.80;;;2.67;;
16426;SDS011;8322;-33.900;151.170;2023-04-06T06:36:31;4.93;;;2.00;;
16426;SDS011;8322;-33.900;151.170;2023-04-06T06:39:01;5.10;;;2.45;;
16426;SDS011;8322;-33.900;151.170;2023-04-06T06:41:31;5.80;;;3.50;;
16426;SDS011;8322;-33.900;151.170;2023-04-06T06:44:03;6.93;;;3.28;;
16426;SDS011;8322;-33.900;151.170;2023-04-06T06:46:33;5.65;;;2.40;;
16426;SDS011;8322;-33.900;151.170;2023-04-06T06:49:02;5.93;;;2.40;;
16426;SDS011;8322;-33.900;151.170;2023-04-06T06:51:32;6.00;;;2.95;;
16426;SDS011;8322;-33.900;151.170;2023-04-06T06:54:02;6.35;;;2.10;;
16426;SDS011;8322;-33.900;151.170;2023-04-06T06:56:31;4.95;;;2.20;;
16426;SDS011;8322;-33.900;151.170;2023-04-06T06:59:03;7.35;;;2.50;;
16426;SDS011;8322;-33.900;151.170;2023-04-06T07:01:33;3.88;;;1.90;;
16426;SDS011;8322;-33.900;151.170;2023-04-06T07:04:03;6.45;;;3.00;;
16426;SDS011;8322;-33.900;151.170;2023-04-06T07:06:34;5.03;;;2.03;;
16426;SDS011;8322;-33.900;151.170;2023-04-06T07:09:04;7.50;;;3.65;;
16426;SDS011;8322;-33.900;151.170;2023-04-06T07:11:33;7.78;;;3.20;;
16426;SDS011;8322;-33.900;151.170;2023-04-06T07:14:05;8.02;;;2.58;;
16426;SDS011;8322;-33.900;151.170;2023-04-06T07:16:34;4.97;;;1.50;;
16426;SDS011;8322;-33.900;151.170;2023-04-06T07:19:04;4.07;;;1.30;;
16426;SDS011;8322;-33.900;151.170;2023-04-06T07:21:35;4.75;;;2.03;;
16426;SDS011;8322;-33.900;151.170;2023-04-06T07:24:05;8.27;;;3.25;;
16426;SDS011;8322;-33.900;151.170;2023-04-06T07:26:35;4.15;;;1.67;;
16426;SDS011;8322;-33.900;151.170;2023-04-06T07:29:06;5.35;;;1.25;;
16426;SDS011;8322;-33.900;151.170;2023-04-06T07:31:36;4.35;;;1.92;;
16426;SDS011;8322;-33.900;151.170;2023-04-06T07:34:05;6.90;;;2.05;;
16426;SDS011;8322;-33.900;151.170;2023-04-06T07:36:35;6.35;;;2.47;;
16426;SDS011;8322;-33.900;151.170;2023-04-06T07:39:05;9.27;;;2.28;;
16426;SDS011;8322;-33.900;151.170;2023-04-06T07:41:35;7.28;;;2.03;;
16426;SDS011;8322;-33.900;151.170;2023-04-06T07:44:06;7.00;;;3.08;;
16426;SDS011;8322;-33.900;151.170;2023-04-06T07:46:36;31.95;;;9.52;;
16426;SDS011;8322;-33.900;151.170;2023-04-06T07:49:06;11.57;;;3.78;;
16426;SDS011;8322;-33.900;151.170;2023-04-06T07:51:36;9.25;;;3.03;;
16426;SDS011;8322;-33.900;151.170;2023-04-06T07:54:05;6.82;;;3.08;;
16426;SDS011;8322;-33.900;151.170;2023-04-06T07:56:35;8.10;;;3.78;;
16426;SDS011;8322;-33.900;151.170;2023-04-06T07:59:06;8.55;;;3.47;;
16426;SDS011;8322;-33.900;151.170;2023-04-06T08:01:37;6.72;;;2.65;;
16426;SDS011;8322;-33.900;151.170;2023-04-06T08:04:06;7.38;;;2.90;;
16426;SDS011;8322;-33.900;151.170;2023-04-06T08:06:36;6.15;;;3.30;;
16426;SDS011;8322;-33.900;151.170;2023-04-06T08:09:07;8.00;;;3.17;;
16426;SDS011;8322;-33.900;151.170;2023-04-06T08:11:36;7.70;;;2.90;;
16426;SDS011;8322;-33.900;151.170;2023-04-06T08:14:08;10.52;;;6.43;;
16426;SDS011;8322;-33.900;151.170;2023-04-06T08:16:37;10.73;;;5.13;;
16426;SDS011;8322;-33.900;151.170;2023-04-06T08:19:07;16.50;;;8.10;;
16426;SDS011;8322;-33.900;151.170;2023-04-06T08:21:37;11.50;;;5.82;;
16426;SDS011;8322;-33.900;151.170;2023-04-06T08:24:07;9.52;;;4.90;;
16426;SDS011;8322;-33.900;151.170;2023-04-06T08:26:36;9.90;;;4.32;;
16426;SDS011;8322;-33.900;151.170;2023-04-06T08:29:08;9.10;;;4.38;;
16426;SDS011;8322;-33.900;151.170;2023-04-06T08:31:38;9.32;;;4.85;;
16426;SDS011;8322;-33.900;151.170;2023-04-06T08:34:07;11.50;;;5.43;;
16426;SDS011;8322;-33.900;151.170;2023-04-06T08:36:37;9.05;;;4.53;;
16426;SDS011;8322;-33.900;151.170;2023-04-06T08:39:06;12.38;;;5.80;;
16426;SDS011;8322;-33.900;151.170;2023-04-06T08:41:36;13.05;;;6.78;;
16426;SDS011;8322;-33.900;151.170;2023-04-06T08:44:06;20.42;;;11.40;;
16426;SDS011;8322;-33.900;151.170;2023-04-06T08:46:37;23.83;;;12.77;;
16426;SDS011;8322;-33.900;151.170;2023-04-06T08:49:07;22.55;;;11.98;;
16426;SDS011;8322;-33.900;151.170;2023-04-06T08:51:37;22.35;;;11.52;;
16426;SDS011;8322;-33.900;151.170;2023-04-06T08:54:06;23.08;;;12.48;;
16426;SDS011;8322;-33.900;151.170;2023-04-06T08:56:37;20.70;;;10.18;;
16426;SDS011;8322;-33.900;151.170;2023-04-06T08:59:07;21.80;;;11.00;;
16426;SDS011;8322;-33.900;151.170;2023-04-06T09:01:39;16.33;;;7.10;;
16426;SDS011;8322;-33.900;151.170;2023-04-06T09:04:11;12.82;;;6.78;;
16426;SDS011;8322;-33.900;151.170;2023-04-06T09:06:42;21.55;;;12.18;;
16426;SDS011;8322;-33.900;151.170;2023-04-06T09:09:11;11.43;;;5.85;;
16426;SDS011;8322;-33.900;151.170;2023-04-06T09:11:45;11.25;;;5.20;;
16426;SDS011;8322;-33.900;151.170;2023-04-06T09:14:15;11.70;;;4.57;;
16426;SDS011;8322;-33.900;151.170;2023-04-06T09:16:47;12.10;;;4.22;;
16426;SDS011;8322;-33.900;151.170;2023-04-06T09:19:16;10.80;;;4.25;;
16426;SDS011;8322;-33.900;151.170;2023-04-06T09:21:46;12.77;;;6.53;;
16426;SDS011;8322;-33.900;151.170;2023-04-06T09:24:16;14.02;;;7.43;;
16426;SDS011;8322;-33.900;151.170;2023-04-06T09:26:51;17.65;;;9.07;;
16426;SDS011;8322;-33.900;151.170;2023-04-06T09:29:24;12.05;;;6.60;;
16426;SDS011;8322;-33.900;151.170;2023-04-06T09:32:03;9.13;;;5.00;;
16426;SDS011;8322;-33.900;151.170;2023-04-06T09:34:33;13.10;;;6.70;;
16426;SDS011;8322;-33.900;151.170;2023-04-06T09:37:12;12.95;;;6.05;;
16426;SDS011;8322;-33.900;151.170;2023-04-06T09:39:42;9.35;;;4.93;;
16426;SDS011;8322;-33.900;151.170;2023-04-06T09:42:12;10.23;;;4.80;;
16426;SDS011;8322;-33.900;151.170;2023-04-06T09:44:41;14.15;;;5.55;;
16426;SDS011;8322;-33.900;151.170;2023-04-06T09:47:13;13.88;;;5.68;;
16426;SDS011;8322;-33.900;151.170;2023-04-06T09:49:43;14.65;;;5.82;;
16426;SDS011;8322;-33.900;151.170;2023-04-06T09:52:13;10.73;;;5.50;;
16426;SDS011;8322;-33.900;151.170;2023-04-06T09:54:44;12.35;;;5.07;;
16426;SDS011;8322;-33.900;151.170;2023-04-06T09:57:18;15.52;;;7.18;;
16426;SDS011;8322;-33.900;151.170;2023-04-06T09:59:50;20.38;;;9.10;;
16426;SDS011;8322;-33.900;151.170;2023-04-06T10:02:24;10.30;;;6.00;;
16426;SDS011;8322;-33.900;151.170;2023-04-06T10:04:58;8.63;;;4.50;;
16426;SDS011;8322;-33.900;151.170;2023-04-06T10:07:29;13.70;;;5.95;;
16426;SDS011;8322;-33.900;151.170;2023-04-06T10:09:59;7.10;;;3.70;;
16426;SDS011;8322;-33.900;151.170;2023-04-06T10:12:30;7.38;;;3.22;;
16426;SDS011;8322;-33.900;151.170;2023-04-06T10:14:59;8.05;;;3.30;;
16426;SDS011;8322;-33.900;151.170;2023-04-06T10:17:31;7.85;;;3.50;;
16426;SDS011;8322;-33.900;151.170;2023-04-06T10:20:02;8.15;;;3.20;;
16426;SDS011;8322;-33.900;151.170;2023-04-06T10:22:34;5.53;;;2.40;;
16426;SDS011;8322;-33.900;151.170;2023-04-06T10:25:06;10.10;;;3.05;;
16426;SDS011;8322;-33.900;151.170;2023-04-06T10:27:37;6.38;;;2.92;;
16426;SDS011;8322;-33.900;151.170;2023-04-06T10:30:07;10.32;;;4.20;;
16426;SDS011;8322;-33.900;151.170;2023-04-06T10:32:38;10.73;;;3.90;;
16426;SDS011;8322;-33.900;151.170;2023-04-06T10:35:08;8.57;;;3.75;;
16426;SDS011;8322;-33.900;151.170;2023-04-06T10:37:49;11.23;;;3.83;;
16426;SDS011;8322;-33.900;151.170;2023-04-06T10:40:23;7.13;;;3.38;;
16426;SDS011;8322;-33.900;151.170;2023-04-06T10:42:53;9.90;;;3.53;;
16426;SDS011;8322;-33.900;151.170;2023-04-06T10:45:23;8.73;;;3.30;;
16426;SDS011;8322;-33.900;151.170;2023-04-06T10:47:55;9.23;;;3.75;;
16426;SDS011;8322;-33.900;151.170;2023-04-06T10:50:25;9.77;;;3.67;;
16426;SDS011;8322;-33.900;151.170;2023-04-06T10:53:00;6.65;;;2.55;;
16426;SDS011;8322;-33.900;151.170;2023-04-06T10:55:30;5.45;;;2.92;;
16426;SDS011;8322;-33.900;151.170;2023-04-06T10:58:00;7.72;;;3.80;;
16426;SDS011;8322;-33.900;151.170;2023-04-06T11:00:30;8.60;;;3.03;;
16426;SDS011;8322;-33.900;151.170;2023-04-06T11:03:01;8.70;;;3.00;;
16426;SDS011;8322;-33.900;151.170;2023-04-06T11:05:34;9.15;;;2.80;;
16426;SDS011;8322;-33.900;151.170;2023-04-06T11:08:04;8.52;;;2.83;;
16426;SDS011;8322;-33.900;151.170;2023-04-06T11:10:34;7.00;;;3.17;;
16426;SDS011;8322;-33.900;151.170;2023-04-06T11:13:04;6.95;;;3.00;;
16426;SDS011;8322;-33.900;151.170;2023-04-06T11:15:34;5.20;;;3.20;;
16426;SDS011;8322;-33.900;151.170;2023-04-06T11:18:05;9.60;;;3.13;;
16426;SDS011;8322;-33.900;151.170;2023-04-06T11:20:35;9.30;;;3.08;;
16426;SDS011;8322;-33.900;151.170;2023-04-06T11:23:05;10.05;;;3.58;;
16426;SDS011;8322;-33.900;151.170;2023-04-06T11:25:34;8.73;;;3.40;;
16426;SDS011;8322;-33.900;151.170;2023-04-06T11:28:04;8.90;;;3.20;;
16426;SDS011;8322;-33.900;151.170;2023-04-06T11:30:34;9.07;;;3.20;;
16426;SDS011;8322;-33.900;151.170;2023-04-06T11:33:03;10.07;;;2.90;;
16426;SDS011;8322;-33.900;151.170;2023-04-06T11:35:34;11.50;;;3.63;;
16426;SDS011;8322;-33.900;151.170;2023-04-06T11:38:04;6.25;;;3.05;;
16426;SDS011;8322;-33.900;151.170;2023-04-06T11:40:34;8.88;;;3.28;;
16426;SDS011;8322;-33.900;151.170;2023-04-06T11:43:04;8.68;;;3.13;;
16426;SDS011;8322;-33.900;151.170;2023-04-06T11:45:39;9.57;;;2.92;;
16426;SDS011;8322;-33.900;151.170;2023-04-06T11:48:17;10.38;;;2.72;;
16426;SDS011;8322;-33.900;151.170;2023-04-06T11:50:54;6.57;;;2.67;;
16426;SDS011;8322;-33.900;151.170;2023-04-06T11:53:24;6.97;;;2.75;;
16426;SDS011;8322;-33.900;151.170;2023-04-06T11:55:54;8.63;;;3.22;;
16426;SDS011;8322;-33.900;151.170;2023-04-06T11:58:23;7.82;;;2.92;;
16426;SDS011;8322;-33.900;151.170;2023-04-06T12:00:53;7.28;;;3.17;;
16426;SDS011;8322;-33.900;151.170;2023-04-06T12:03:22;8.73;;;3.38;;
16426;SDS011;8322;-33.900;151.170;2023-04-06T12:05:54;11.77;;;3.85;;
16426;SDS011;8322;-33.900;151.170;2023-04-06T12:08:23;8.70;;;3.35;;
16426;SDS011;8322;-33.900;151.170;2023-04-06T12:10:53;10.10;;;4.00;;
16426;SDS011;8322;-33.900;151.170;2023-04-06T12:13:22;12.40;;;4.30;;
16426;SDS011;8322;-33.900;151.170;2023-04-06T12:15:52;9.05;;;4.10;;
16426;SDS011;8322;-33.900;151.170;2023-04-06T12:18:21;9.13;;;4.40;;
16426;SDS011;8322;-33.900;151.170;2023-04-06T12:20:51;9.98;;;4.03;;
16426;SDS011;8322;-33.900;151.170;2023-04-06T12:23:22;10.13;;;4.68;;
16426;SDS011;8322;-33.900;151.170;2023-04-06T12:25:52;7.53;;;3.78;;
16426;SDS011;8322;-33.900;151.170;2023-04-06T12:28:21;10.85;;;5.03;;
16426;SDS011;8322;-33.900;151.170;2023-04-06T12:30:52;13.45;;;7.78;;
16426;SDS011;8322;-33.900;151.170;2023-04-06T12:33:22;15.93;;;9.38;;
16426;SDS011;8322;-33.900;151.170;2023-04-06T12:35:52;17.80;;;10.55;;
16426;SDS011;8322;-33.900;151.170;2023-04-06T12:38:23;16.55;;;9.55;;
16426;SDS011;8322;-33.900;151.170;2023-04-06T12:40:52;16.73;;;8.65;;
16426;SDS011;8322;-33.900;151.170;2023-04-06T12:43:22;13.43;;;5.72;;
16426;SDS011;8322;-33.900;151.170;2023-04-06T12:45:52;8.90;;;5.10;;
16426;SDS011;8322;-33.900;151.170;2023-04-06T12:48:21;9.80;;;4.10;;
16426;SDS011;8322;-33.900;151.170;2023-04-06T12:50:54;8.95;;;3.83;;
16426;SDS011;8322;-33.900;151.170;2023-04-06T12:53:26;11.32;;;3.90;;
16426;SDS011;8322;-33.900;151.170;2023-04-06T12:55:55;6.70;;;3.15;;
16426;SDS011;8322;-33.900;151.170;2023-04-06T12:58:25;7.53;;;3.00;;
16426;SDS011;8322;-33.900;151.170;2023-04-06T13:00:55;7.90;;;2.92;;
16426;SDS011;8322;-33.900;151.170;2023-04-06T13:03:29;8.60;;;2.80;;
16426;SDS011;8322;-33.900;151.170;2023-04-06T13:05:59;7.57;;;3.20;;
16426;SDS011;8322;-33.900;151.170;2023-04-06T13:08:30;8.13;;;3.17;;
16426;SDS011;8322;-33.900;151.170;2023-04-06T13:11:00;8.65;;;3.20;;
16426;SDS011;8322;-33.900;151.170;2023-04-06T13:13:29;8.32;;;3.10;;
16426;SDS011;8322;-33.900;151.170;2023-04-06T13:15:59;8.95;;;3.33;;
16426;SDS011;8322;-33.900;151.170;2023-04-06T13:18:29;8.63;;;3.40;;
16426;SDS011;8322;-33.900;151.170;2023-04-06T13:20:59;8.13;;;3.28;;
16426;SDS011;8322;-33.900;151.170;2023-04-06T13:23:28;7.13;;;3.00;;
16426;SDS011;8322;-33.900;151.170;2023-04-06T13:26:00;7.53;;;2.65;;
16426;SDS011;8322;-33.900;151.170;2023-04-06T13:28:30;7.07;;;2.65;;
16426;SDS011;8322;-33.900;151.170;2023-04-06T13:30:59;8.45;;;2.17;;
16426;SDS011;8322;-33.900;151.170;2023-04-06T13:33:29;7.50;;;2.40;;
16426;SDS011;8322;-33.900;151.170;2023-04-06T13:35:59;10.90;;;3.05;;
16426;SDS011;8322;-33.900;151.170;2023-04-06T13:38:29;7.10;;;3.00;;
16426;SDS011;8322;-33.900;151.170;2023-04-06T13:41:01;8.88;;;3.80;;
16426;SDS011;8322;-33.900;151.170;2023-04-06T13:43:30;10.43;;;3.50;;
16426;SDS011;8322;-33.900;151.170;2023-04-06T13:46:00;8.10;;;2.67;;
16426;SDS011;8322;-33.900;151.170;2023-04-06T13:48:29;5.57;;;2.50;;
16426;SDS011;8322;-33.900;151.170;2023-04-06T13:51:07;4.18;;;2.33;;
16426;SDS011;8322;-33.900;151.170;2023-04-06T13:53:37;7.68;;;2.20;;
16426;SDS011;8322;-33.900;151.170;2023-04-06T13:56:09;7.20;;;2.22;;
16426;SDS011;8322;-33.900;151.170;2023-04-06T13:58:38;8.00;;;2.35;;
16426;SDS011;8322;-33.900;151.170;2023-04-06T14:01:08;5.60;;;2.13;;
16426;SDS011;8322;-33.900;151.170;2023-04-06T14:03:37;5.95;;;1.70;;
16426;SDS011;8322;-33.900;151.170;2023-04-06T14:06:11;7.22;;;2.28;;
16426;SDS011;8322;-33.900;151.170;2023-04-06T14:08:40;6.03;;;2.47;;
16426;SDS011;8322;-33.900;151.170;2023-04-06T14:11:14;6.00;;;2.50;;
16426;SDS011;8322;-33.900;151.170;2023-04-06T14:13:44;8.85;;;2.58;;
16426;SDS011;8322;-33.900;151.170;2023-04-06T14:16:13;7.60;;;2.17;;
16426;SDS011;8322;-33.900;151.170;2023-04-06T14:18:45;7.22;;;2.05;;
16426;SDS011;8322;-33.900;151.170;2023-04-06T14:21:14;5.22;;;2.13;;
16426;SDS011;8322;-33.900;151.170;2023-04-06T14:23:44;6.50;;;2.30;;
16426;SDS011;8322;-33.900;151.170;2023-04-06T14:26:15;9.30;;;2.38;;
16426;SDS011;8322;-33.900;151.170;2023-04-06T14:28:45;5.72;;;2.40;;
16426;SDS011;8322;-33.900;151.170;2023-04-06T14:31:15;6.00;;;2.50;;
16426;SDS011;8322;-33.900;151.170;2023-04-06T14:33:44;5.38;;;2.38;;
16426;SDS011;8322;-33.900;151.170;2023-04-06T14:36:16;7.70;;;3.00;;
16426;SDS011;8322;-33.900;151.170;2023-04-06T14:38:46;5.95;;;3.00;;